Flight Track Log - Related Links

Times and Time Zones

All times are in EDT time to prevent confusion due to time zone crossing. See the PDT4249 flight status page for this flight to view local times or setup timezone preferences in your user account.

Time Position Orientation Groundspeed Altitude Reporting Facility
EDT Latitude Longitude Course Direction KTS MPH feet Rate Location/Type
Sun 04:04:30 PM 39.8833 -75.2167 247° West 122 140 700  Level Philadelphia TRACON
Sun 04:05:36 PM 39.8667 -75.1667 113° Southeast 147 169 2,200 1,333 Climbing Philadelphia TRACON
Sun 04:06:36 PM 39.8333 -75.1333 142° Southeast 152 175 3,500 1,240 Climbing Philadelphia TRACON
Sun 04:07:00 PM 39.7752 -75.3912 247° West  Level FlightAware Approximate
Sun 04:07:37 PM 39.8000 -75.1333 180° South 154 177 4,700  Level Philadelphia TRACON
Sun 04:08:00 PM 39.7503 -75.4494 237° Southwest  Level FlightAware Approximate
Sun 04:08:43 PM 39.7667 -75.1667 218° Southwest 167 192 6,300  Level Philadelphia TRACON
Sun 04:09:00 PM 39.7253 -75.5076 247° West  Level FlightAware Approximate
Sun 04:09:43 PM 39.7500 -75.2167 247° West 167 192 7,600  Level Philadelphia TRACON
Sun 04:10:49 PM 39.7333 -75.2833 252° West 210 242 8,000 190 Climbing Philadelphia TRACON
Sun 04:11:49 PM 39.7167 -75.3667 255° West 225 259 8,000  Level Philadelphia TRACON
Sun 04:12:49 PM 39.7167 -75.4500 270° West 232 267 8,000  Level Philadelphia TRACON
Sun 04:13:49 PM 39.7000 -75.5333 255° West 235 270 8,000  Level Philadelphia TRACON
Sun 04:14:55 PM 39.6833 -75.6167 255° West 234 269 8,000  Level Philadelphia TRACON
Sun 04:15:49 PM 39.6667 -75.7000 255° West 234 269 8,000  Level Philadelphia TRACON
Sun 04:16:49 PM 39.6667 -75.7833 270° West 234 269 8,000 29 Level Philadelphia TRACON
Sun 04:19:13 PM 39.6333 -75.9667 257° West 229 264 8,100  Climbing Potomac TRACON
Sun 04:20:13 PM 39.6167 -76.0500 255° West 228 262 8,000 -500 Descending Potomac TRACON
Sun 04:21:13 PM 39.6167 -76.1333 270° West 237 273 7,100 -950 Descending Potomac TRACON
Sun 04:22:13 PM 39.5833 -76.2000 237° Southwest 239 275 6,100 -550 Descending Potomac TRACON
Sun 04:23:13 PM 39.5333 -76.2500 218° Southwest 224 258 6,000 -50 Descending Potomac TRACON
Sun 04:24:14 PM 39.4833 -76.3167 226° Southwest 216 249 6,000  Level Potomac TRACON
Sun 04:25:14 PM 39.4333 -76.3667 218° Southwest 214 246 6,000  Level Potomac TRACON
Sun 04:27:14 PM 39.3500 -76.4667 223° Southwest 214 246 6,000  Level Potomac TRACON
Sun 04:28:14 PM 39.3000 -76.5167 218° Southwest 215 247 6,000  Level Potomac TRACON
Sun 04:29:14 PM 39.2667 -76.5667 229° Southwest 219 252 6,000  Level Potomac TRACON
Sun 04:30:15 PM 39.2167 -76.6167 218° Southwest 216 249 6,000  Level Potomac TRACON
Sun 04:31:15 PM 39.1667 -76.6667 218° Southwest 206 237 6,000 -50 Level Potomac TRACON
Sun 04:32:15 PM 39.1333 -76.7167 229° Southwest 200 230 5,900  Descending Potomac TRACON
Sun 04:33:15 PM 39.0833 -76.7500 207° Southwest 192 221 6,000 -425 Climbing Potomac TRACON
Sun 04:35:00 PM 39.0333 -76.8158 270° West  Level FlightAware Approximate
Sun 04:36:15 PM 38.9500 -76.8833 270° West 229 264 4,200  Level Potomac TRACON
Sun 04:37:15 PM 38.9000 -76.9333 218° Southwest 232 267 3,200 -545 Descending Potomac TRACON
Sun 04:38:16 PM 38.8667 -77.0000 237° Southwest 227 261 3,100 -99 Descending Potomac TRACON
Sun 04:39:16 PM 38.8500 -77.0833 256° West 222 255 3,000 -133 Descending Potomac TRACON
Sun 04:41:16 PM 38.8500 -77.2333 270° West 204 235 2,700 -300 Descending Potomac TRACON
Sun 04:42:16 PM 38.8833 -77.2667 322° Northwest 206 237 2,100 -300 Descending Potomac TRACON
Sun 04:43:16 PM 38.9000 -77.2167 67° East 161 185 2,100  Level Potomac TRACON

Login

Don't have an account? Register now (free) for customized features, flight alerts, and more!